Time;durP1;ratioP1;P1;durP2;ratioP2;P2;SDS_P1;SDS_P2;PMS_P1;PMS_P2;Temp;Humidity;BMP_temperature;BMP_pressure;BME280_temperature;BME280_humidity;BME280_pressure;Samples;Min_cycle;Max_cycle;Signal;HPM_P1;HPM_P2
2023/07/07 00:01:32;;;;;;;8.05;6.32;;;18.30;99.90;;;;;;4902345;29;20036;-92
2023/07/07 00:03:58;;;;;;;7.15;6.47;;;18.40;99.90;;;;;;4902127;29;20024;-94
2023/07/07 00:06:50;;;;;;;7.20;5.70;;;18.40;99.90;;;;;;4902217;29;20060;-93
2023/07/07 00:09:16;;;;;;;7.70;6.10;;;18.30;99.90;;;;;;4902249;29;20430;-92
2023/07/07 00:12:02;;;;;;;7.55;6.32;;;18.30;99.90;;;;;;4901812;29;20393;-93
2023/07/07 00:14:28;;;;;;;11.48;6.57;;;18.20;99.90;;;;;;4901667;29;20025;-94
2023/07/07 00:17:03;;;;;;;8.25;6.88;;;18.50;99.90;;;;;;4901493;29;20088;-94
2023/07/07 00:19:48;;;;;;;14.65;6.38;;;18.30;99.90;;;;;;4901808;29;20025;-91
2023/07/07 00:22:14;;;;;;;7.78;6.93;;;18.30;99.90;;;;;;4901465;29;20036;-92
2023/07/07 00:24:40;;;;;;;8.43;7.03;;;18.30;99.90;;;;;;4901735;29;20028;-94
2023/07/07 00:27:06;;;;;;;11.20;7.40;;;18.30;99.90;;;;;;4901757;29;20488;-94
2023/07/07 00:29:31;;;;;;;7.13;6.40;;;18.30;99.90;;;;;;4901648;29;20128;-92
2023/07/07 00:32:05;;;;;;;8.23;6.95;;;18.20;99.90;;;;;;4901334;29;20549;-93
2023/07/07 00:34:31;;;;;;;7.05;6.45;;;18.20;99.90;;;;;;4901589;29;20031;-92
2023/07/07 00:37:15;;;;;;;9.82;6.82;;;18.10;99.90;;;;;;4901565;29;20119;-93
2023/07/07 00:39:40;;;;;;;9.98;6.70;;;18.00;99.90;;;;;;4913959;29;20009;-92
2023/07/07 00:42:08;;;;;;;9.98;7.00;;;17.60;99.90;;;;;;4923945;29;20035;-93
2023/07/07 00:45:18;;;;;;;7.88;7.07;;;18.00;99.90;;;;;;4911426;29;20037;-93
2023/07/07 00:48:13;;;;;;;10.85;7.28;;;18.00;99.90;;;;;;4901974;29;20033;-94
2023/07/07 00:51:42;;;;;;;7.47;6.78;;;17.90;99.90;;;;;;4899058;29;20036;-94
2023/07/07 00:54:14;;;;;;;7.93;6.60;;;17.80;99.90;;;;;;4829110;29;20043;-93
2023/07/07 00:56:55;;;;;;;9.25;6.82;;;17.90;99.90;;;;;;4821263;29;20084;-95
2023/07/07 00:59:37;;;;;;;9.15;6.13;;;17.90;99.90;;;;;;4903011;29;20112;-94
2023/07/07 01:02:09;;;;;;;7.38;6.38;;;18.70;99.90;;;;;;4903224;29;20025;-93
2023/07/07 01:04:51;;;;;;;8.82;6.82;;;18.10;99.90;;;;;;4905555;29;20037;-95
2023/07/07 01:07:52;;;;;;;12.15;6.30;;;18.30;99.90;;;;;;4911073;29;20036;-95
2023/07/07 01:10:37;;;;;;;7.80;6.60;;;17.80;99.90;;;;;;4902881;29;20036;-92
2023/07/07 01:13:25;;;;;;;7.38;6.68;;;17.90;99.90;;;;;;4899677;29;20087;-92
2023/07/07 01:15:51;;;;;;;7.18;6.57;;;17.90;99.90;;;;;;4900609;29;20048;-93
2023/07/07 01:18:48;;;;;;;10.00;6.82;;;17.90;99.90;;;;;;4900886;29;20505;-93
2023/07/07 01:21:35;;;;;;;8.02;7.15;;;17.90;99.90;;;;;;4900618;29;20079;-94
2023/07/07 01:24:35;;;;;;;8.85;7.05;;;17.90;99.90;;;;;;4900453;29;20108;-93
2023/07/07 01:27:55;;;;;;;7.50;6.68;;;17.80;99.90;;;;;;4895343;29;20033;-94
2023/07/07 01:30:56;;;;;;;9.07;7.38;;;17.80;99.90;;;;;;4900895;29;20036;-93
2023/07/07 01:33:44;;;;;;;12.30;7.47;;;18.00;99.90;;;;;;4900379;29;20094;-93
2023/07/07 01:36:09;;;;;;;10.65;8.02;;;17.80;99.90;;;;;;4900152;29;20033;-93
2023/07/07 01:38:57;;;;;;;7.53;6.82;;;17.80;99.90;;;;;;4900678;29;20036;-92
2023/07/07 01:41:50;;;;;;;8.48;7.60;;;17.40;99.90;;;;;;4900242;29;20020;-93
2023/07/07 01:44:47;;;;;;;9.68;7.63;;;17.80;99.90;;;;;;4900326;29;20033;-93
2023/07/07 01:47:49;;;;;;;9.15;7.32;;;17.50;99.90;;;;;;4900194;29;20080;-94
2023/07/07 01:50:34;;;;;;;9.52;7.25;;;17.80;99.90;;;;;;4899899;29;20041;-92
2023/07/07 01:53:26;;;;;;;8.20;7.43;;;18.00;99.90;;;;;;4899953;29;20028;-92
2023/07/07 01:55:57;;;;;;;13.10;7.82;;;17.80;99.90;;;;;;4900246;29;20031;-92
2023/07/07 01:58:36;;;;;;;11.10;8.27;;;17.80;99.90;;;;;;4899723;29;20033;-94
2023/07/07 02:01:02;;;;;;;8.20;7.43;;;18.00;99.90;;;;;;4899969;29;20036;-94
2023/07/07 02:03:39;;;;;;;8.35;7.22;;;17.70;99.90;;;;;;4899845;29;20033;-93
2023/07/07 02:06:05;;;;;;;11.32;6.53;;;17.70;99.90;;;;;;4899575;29;20481;-92
2023/07/07 02:08:46;;;;;;;8.50;6.78;;;17.80;99.90;;;;;;4899992;29;20052;-93
2023/07/07 02:11:12;;;;;;;7.10;6.40;;;18.60;99.90;;;;;;4899747;29;20037;-94
2023/07/07 02:13:56;;;;;;;8.70;6.75;;;17.70;99.90;;;;;;4899594;29;20025;-93
2023/07/07 02:16:21;;;;;;;9.10;7.10;;;17.80;99.90;;;;;;4906402;23;20108;-95
2023/07/07 02:18:48;;;;;;;9.98;6.90;;;17.70;99.90;;;;;;4898599;29;20032;-93
2023/07/07 02:21:15;;;;;;;8.88;6.97;;;17.70;99.90;;;;;;4899843;29;20474;-93
2023/07/07 02:23:49;;;;;;;7.30;6.45;;;17.70;99.90;;;;;;4899398;29;20036;-92
2023/07/07 02:26:18;;;;;;;17.75;6.65;;;18.10;99.90;;;;;;4910597;29;20028;-94
2023/07/07 02:28:44;;;;;;;7.10;6.50;;;17.70;99.90;;;;;;4922488;29;20027;-92
2023/07/07 02:31:27;;;;;;;8.90;6.28;;;17.60;99.90;;;;;;4911826;29;20040;-94
2023/07/07 02:33:53;;;;;;;8.23;6.68;;;17.60;99.90;;;;;;4899944;29;20069;-94
2023/07/07 02:36:38;;;;;;;13.88;7.05;;;17.60;99.90;;;;;;4900219;29;20493;-93
2023/07/07 02:39:04;;;;;;;9.20;6.95;;;17.60;99.90;;;;;;4899700;29;20379;-92
2023/07/07 02:41:30;;;;;;;8.95;6.75;;;18.10;99.90;;;;;;4899660;29;20028;-92
2023/07/07 02:44:13;;;;;;;8.73;7.13;;;18.20;99.90;;;;;;4901570;29;20021;-93
2023/07/07 02:46:39;;;;;;;11.15;7.30;;;17.60;99.90;;;;;;4912064;29;20461;-93
2023/07/07 02:49:05;;;;;;;11.60;6.43;;;18.00;99.90;;;;;;4901585;29;20052;-92
2023/07/07 02:51:30;;;;;;;8.50;5.88;;;17.60;99.90;;;;;;4899103;29;20115;-93
2023/07/07 02:54:45;;;;;;;10.43;6.57;;;18.80;99.90;;;;;;4899146;29;20029;-93
2023/07/07 02:57:10;;;;;;;8.63;6.70;;;17.50;99.90;;;;;;4899092;29;20107;-94
2023/07/07 02:59:51;;;;;;;8.70;6.00;;;17.50;99.90;;;;;;4898656;29;20056;-93
2023/07/07 03:02:17;;;;;;;8.00;6.57;;;18.40;99.90;;;;;;4899159;29;20060;-93
2023/07/07 03:05:00;;;;;;;9.43;6.38;;;17.50;99.90;;;;;;4903943;29;20359;-93
2023/07/07 03:07:25;;;;;;;7.50;6.55;;;17.50;99.90;;;;;;4902797;29;20483;-94
2023/07/07 03:09:51;;;;;;;7.97;6.50;;;17.30;99.90;;;;;;4902489;29;20067;-94
2023/07/07 03:12:35;;;;;;;6.38;5.70;;;17.50;99.90;;;;;;4903033;29;20029;-93
2023/07/07 03:15:04;;;;;;;8.15;6.43;;;17.50;99.90;;;;;;4902176;29;20044;-92
2023/07/07 03:17:48;;;;;;;9.65;6.07;;;17.50;99.90;;;;;;4902794;29;20092;-92
2023/07/07 03:20:13;;;;;;;10.60;6.25;;;17.40;99.90;;;;;;4902986;29;20031;-93
2023/07/07 03:22:58;;;;;;;7.68;5.78;;;17.50;99.90;;;;;;4902921;29;20104;-92
2023/07/07 03:25:26;;;;;;;6.50;5.90;;;17.40;99.90;;;;;;4902634;29;20108;-92
2023/07/07 03:28:09;;;;;;;8.27;5.63;;;17.50;99.90;;;;;;4902449;29;20021;-93
2023/07/07 03:30:35;;;;;;;8.45;5.20;;;18.00;99.90;;;;;;4902696;29;20040;-92
2023/07/07 03:33:01;;;;;;;7.90;5.75;;;17.50;99.90;;;;;;4902371;29;20152;-92
2023/07/07 03:35:44;;;;;;;6.28;5.65;;;18.10;99.90;;;;;;4902803;29;20036;-93
2023/07/07 03:38:10;;;;;;;7.60;5.47;;;17.30;99.90;;;;;;4902762;29;20032;-93
2023/07/07 03:40:35;;;;;;;7.35;5.57;;;18.20;99.90;;;;;;4902579;29;20024;-93
2023/07/07 03:43:27;;;;;;;9.18;5.20;;;18.20;99.90;;;;;;4901951;29;20039;-94
2023/07/07 03:46:08;;;;;;;8.32;5.22;;;17.40;99.90;;;;;;4902152;29;20111;-93
2023/07/07 03:48:34;;;;;;;5.47;4.90;;;17.30;99.90;;;;;;4902179;29;20029;-93
2023/07/07 03:51:02;;;;;;;6.05;5.07;;;18.40;99.90;;;;;;4900456;29;20041;-84
2023/07/07 03:53:29;;;;;;;7.80;5.28;;;18.00;99.90;;;;;;4901785;29;20035;-92
2023/07/07 03:55:55;;;;;;;6.40;5.15;;;17.40;99.90;;;;;;4901739;29;20040;-92
2023/07/07 03:58:21;;;;;;;9.25;5.65;;;17.90;99.90;;;;;;4902398;29;20048;-94
2023/07/07 04:00:48;;;;;;;7.93;5.03;;;17.40;99.90;;;;;;4901784;29;20410;-94
2023/07/07 04:03:14;;;;;;;6.68;5.18;;;17.40;99.90;;;;;;4902248;29;20037;-93
2023/07/07 04:05:47;;;;;;;9.30;5.30;;;17.30;99.90;;;;;;4901713;29;20036;-93
2023/07/07 04:08:14;;;;;;;5.43;4.55;;;17.40;99.90;;;;;;4901534;29;20504;-94
2023/07/07 04:10:40;;;;;;;7.78;5.40;;;17.30;99.90;;;;;;4902037;29;20041;-94
2023/07/07 04:13:07;;;;;;;6.85;4.82;;;17.40;99.90;;;;;;4914865;29;20015;-93
2023/07/07 04:15:33;;;;;;;7.15;5.45;;;17.40;99.90;;;;;;4925914;29;20064;-92
2023/07/07 04:17:59;;;;;;;8.55;5.10;;;17.40;99.90;;;;;;4931520;29;20024;-95
2023/07/07 04:20:25;;;;;;;5.78;5.28;;;17.40;99.90;;;;;;4920844;29;20024;-93
2023/07/07 04:22:50;;;;;;;8.30;5.70;;;17.40;99.90;;;;;;4921584;29;20028;-93
2023/07/07 04:25:17;;;;;;;5.53;4.75;;;17.30;99.90;;;;;;4904583;29;20505;-93
2023/07/07 04:27:44;;;;;;;7.32;5.35;;;17.40;99.90;;;;;;4913124;29;20024;-93
2023/07/07 04:30:11;;;;;;;6.45;5.00;;;17.40;99.90;;;;;;4928095;29;20040;-94
2023/07/07 04:32:38;;;;;;;6.35;5.25;;;17.40;99.90;;;;;;4913401;29;20036;-95
2023/07/07 04:35:04;;;;;;;7.65;5.00;;;17.50;99.90;;;;;;4931217;29;20036;-94
2023/07/07 04:37:31;;;;;;;8.40;5.50;;;17.50;99.90;;;;;;4938699;29;20024;-95
2023/07/07 04:39:56;;;;;;;7.43;5.35;;;17.50;99.90;;;;;;4903524;29;20033;-95
2023/07/07 04:42:22;;;;;;;6.07;5.10;;;17.50;99.90;;;;;;4893332;29;20129;-94
2023/07/07 04:44:47;;;;;;;7.20;5.47;;;17.50;99.90;;;;;;4905179;29;20028;-95
2023/07/07 04:47:13;;;;;;;5.53;4.63;;;17.60;99.90;;;;;;4906442;29;20111;-94
2023/07/07 04:49:39;;;;;;;7.97;5.15;;;17.60;99.90;;;;;;4907930;29;20044;-95
2023/07/07 04:52:05;;;;;;;10.27;4.82;;;17.70;99.90;;;;;;4910601;29;20032;-95
2023/07/07 04:54:30;;;;;;;9.35;5.55;;;17.60;99.90;;;;;;4913356;29;20021;-95
2023/07/07 04:56:56;;;;;;;7.63;5.00;;;17.90;99.90;;;;;;4897630;29;20040;-95
2023/07/07 04:59:22;;;;;;;8.00;5.13;;;17.60;99.90;;;;;;4898190;29;20048;-93
2023/07/07 05:01:47;;;;;;;5.93;4.28;;;17.60;99.90;;;;;;4894560;29;20029;-95
2023/07/07 05:04:13;;;;;;;6.82;4.70;;;17.70;99.90;;;;;;4888094;29;20422;-93
2023/07/07 05:06:39;;;;;;;7.65;5.00;;;17.70;99.90;;;;;;4896500;29;20020;-95
2023/07/07 05:09:12;;;;;;;7.13;5.15;;;18.80;99.90;;;;;;4892531;29;20128;-94
2023/07/07 05:11:38;;;;;;;4.90;4.15;;;18.20;99.90;;;;;;4892148;29;20390;-94
2023/07/07 05:14:30;;;;;;;6.45;4.47;;;17.70;99.90;;;;;;4901071;29;20024;-95
2023/07/07 05:16:56;;;;;;;4.78;4.30;;;17.70;99.90;;;;;;4882042;29;20510;-93
2023/07/07 05:19:28;;;;;;;7.13;4.45;;;17.70;99.90;;;;;;4929676;23;20071;-94
2023/07/07 05:21:53;;;;;;;8.95;4.75;;;17.80;99.90;;;;;;4863972;29;20026;-95
2023/07/07 05:24:28;;;;;;;4.82;4.32;;;18.00;99.90;;;;;;4893676;24;20063;-94
2023/07/07 05:26:54;;;;;;;7.47;4.35;;;17.20;99.90;;;;;;4899804;29;20029;-94
2023/07/07 05:29:20;;;;;;;5.78;4.03;;;17.80;99.90;;;;;;4901198;29;20100;-94
2023/07/07 05:31:45;;;;;;;8.38;4.40;;;18.10;99.90;;;;;;4907293;23;20148;-95
2023/07/07 05:34:24;;;;;;;5.40;4.25;;;18.30;99.90;;;;;;4902444;29;20461;-95
2023/07/07 05:36:50;;;;;;;12.20;4.40;;;17.90;99.90;;;;;;4903515;29;20037;-94
2023/07/07 05:39:28;;;;;;;5.70;3.75;;;17.90;99.90;;;;;;4904703;29;20029;-95
2023/07/07 05:41:54;;;;;;;4.68;3.85;;;17.30;99.90;;;;;;4901302;29;20131;-95
2023/07/07 05:44:19;;;;;;;9.00;4.28;;;17.90;99.90;;;;;;4902261;29;20461;-93
2023/07/07 05:46:59;;;;;;;5.15;3.80;;;18.00;99.90;;;;;;4900552;29;20028;-94
2023/07/07 05:49:25;;;;;;;5.72;4.22;;;18.10;99.90;;;;;;4900789;29;20084;-94
2023/07/07 05:52:14;;;;;;;9.57;3.80;;;19.00;99.90;;;;;;4900580;29;20389;-93
2023/07/07 05:55:10;;;;;;;9.73;3.85;;;18.10;99.90;;;;;;4900557;29;20028;-93
2023/07/07 05:57:54;;;;;;;4.40;3.30;;;18.20;99.90;;;;;;4827248;29;20051;-93
2023/07/07 06:00:20;;;;;;;7.43;4.00;;;18.30;99.90;;;;;;4842357;29;20056;-93
2023/07/07 06:03:00;;;;;;;4.70;3.83;;;18.30;99.90;;;;;;4847880;29;20014;-94
2023/07/07 06:05:39;;;;;;;9.40;3.58;;;19.10;99.90;;;;;;4836372;29;20058;-93
2023/07/07 06:08:05;;;;;;;6.13;3.63;;;17.90;99.90;;;;;;4901548;29;20032;-93
2023/07/07 06:10:40;;;;;;;5.70;4.15;;;18.40;99.90;;;;;;4906706;23;20408;-93
2023/07/07 06:13:23;;;;;;;7.70;4.07;;;19.80;99.90;;;;;;4903171;29;20028;-94
2023/07/07 06:15:51;;;;;;;4.72;3.80;;;18.40;99.90;;;;;;4885820;29;20027;-92
2023/07/07 06:18:30;;;;;;;6.45;3.55;;;18.50;99.90;;;;;;4900315;29;20052;-92
2023/07/07 06:20:59;;;;;;;5.95;3.42;;;19.50;99.90;;;;;;4907772;29;20025;-94
2023/07/07 06:23:34;;;;;;;5.73;2.80;;;19.40;99.90;;;;;;4887577;29;20028;-93
2023/07/07 06:26:00;;;;;;;4.70;3.53;;;18.60;99.90;;;;;;4887353;29;20060;-92
2023/07/07 06:28:34;;;;;;;12.93;3.85;;;19.60;99.90;;;;;;4890583;29;20031;-93
2023/07/07 06:31:22;;;;;;;5.80;3.00;;;18.60;99.90;;;;;;4925748;29;20036;-90
2023/07/07 06:36:59;;;;;;;4.45;3.30;;;18.80;99.90;;;;;;4870337;29;20071;-92
2023/07/07 06:39:27;;;;;;;5.75;2.95;;;18.90;99.90;;;;;;4916774;29;20111;-91
2023/07/07 06:42:01;;;;;;;6.97;4.38;;;18.90;99.90;;;;;;4894153;29;20124;-90
2023/07/07 06:44:27;;;;;;;4.03;3.33;;;19.00;99.90;;;;;;4899741;29;20056;-92
2023/07/07 06:47:15;;;;;;;6.60;3.25;;;19.00;99.90;;;;;;4898635;29;20470;-89
2023/07/07 06:49:41;;;;;;;9.45;3.25;;;18.50;99.90;;;;;;4899743;29;20081;-90
2023/07/07 06:52:07;;;;;;;5.65;3.33;;;19.10;99.90;;;;;;4901703;29;20036;-93
2023/07/07 06:55:09;;;;;;;9.38;3.28;;;19.20;99.90;;;;;;4917641;29;20039;-92
2023/07/07 06:57:35;;;;;;;7.20;3.20;;;19.20;99.90;;;;;;4917717;29;20020;-91
2023/07/07 07:00:00;;;;;;;6.45;2.78;;;19.40;99.90;;;;;;4916646;29;20035;-91
2023/07/07 07:02:26;;;;;;;4.35;3.15;;;19.30;99.90;;;;;;4898562;29;20072;-90
2023/07/07 07:05:12;;;;;;;4.82;2.50;;;19.30;99.90;;;;;;4906714;29;20477;-92
2023/07/07 07:07:54;;;;;;;6.35;3.20;;;19.50;99.90;;;;;;4918097;23;20497;-90
2023/07/07 07:10:34;;;;;;;4.45;2.95;;;20.20;99.90;;;;;;4891315;29;20124;-90
2023/07/07 07:13:15;;;;;;;9.00;2.67;;;19.50;99.90;;;;;;4894281;29;20033;-91
2023/07/07 07:15:49;;;;;;;4.10;3.22;;;19.50;99.90;;;;;;4898012;29;20392;-92
2023/07/07 07:18:29;;;;;;;5.43;3.08;;;19.50;99.90;;;;;;4898375;29;20020;-92
2023/07/07 07:21:12;;;;;;;3.08;2.65;;;19.60;99.90;;;;;;4898255;29;20036;-90
2023/07/07 07:23:51;;;;;;;5.40;3.00;;;19.60;99.90;;;;;;4890058;29;20024;-87
2023/07/07 07:26:19;;;;;;;8.07;2.90;;;19.90;99.90;;;;;;4897700;29;20329;-88
2023/07/07 07:29:14;;;;;;;3.03;2.58;;;19.40;99.90;;;;;;4907734;23;20064;-87
2023/07/07 07:32:01;;;;;;;6.03;2.97;;;19.30;99.90;;;;;;4868978;29;20051;-89
2023/07/07 07:34:47;;;;;;;8.57;2.78;;;18.60;99.90;;;;;;4881599;29;20061;-89
2023/07/07 07:37:14;;;;;;;3.55;2.58;;;20.80;99.90;;;;;;4892317;29;20029;-87
2023/07/07 07:39:39;;;;;;;4.80;2.90;;;20.00;99.90;;;;;;4864971;29;20030;-88
2023/07/07 07:42:14;;;;;;;5.13;2.75;;;20.10;99.90;;;;;;4864866;29;20033;-88
2023/07/07 07:44:40;;;;;;;2.65;2.42;;;20.00;99.90;;;;;;4870632;29;20103;-88
2023/07/07 07:47:55;;;;;;;3.60;2.42;;;20.10;99.90;;;;;;4889055;29;20017;-92
2023/07/07 07:50:33;;;;;;;5.55;2.97;;;20.10;99.90;;;;;;4882680;29;20040;-91
2023/07/07 07:53:10;;;;;;;6.55;2.40;;;19.60;99.90;;;;;;4903884;29;20024;-89
2023/07/07 07:55:45;;;;;;;5.03;2.42;;;20.20;99.90;;;;;;4891585;29;20024;-89
2023/07/07 07:58:11;;;;;;;6.15;3.20;;;20.20;99.90;;;;;;4881781;29;20092;-90
2023/07/07 08:00:37;;;;;;;7.25;2.40;;;20.20;99.90;;;;;;4882775;29;20060;-91
2023/07/07 08:03:19;;;;;;;4.20;2.63;;;20.30;99.90;;;;;;4899142;29;20025;-88
2023/07/07 08:06:09;;;;;;;5.05;2.50;;;20.30;99.90;;;;;;4900214;29;20036;-87
2023/07/07 08:08:45;;;;;;;6.05;2.67;;;20.20;99.90;;;;;;4900167;29;20060;-87
2023/07/07 08:11:41;;;;;;;7.10;2.60;;;21.30;99.90;;;;;;4902527;29;20039;-91
2023/07/07 08:14:22;;;;;;;5.03;2.95;;;20.10;99.90;;;;;;4902228;29;20025;-92
2023/07/07 08:24:12;;;;;;;;;;;;;;;;;;;;;
2023/07/07 08:26:49;;;;;;;7.93;2.75;;;20.70;99.90;;;;;;4857530;29;20052;-93
2023/07/07 08:29:45;;;;;;;4.75;2.17;;;20.80;99.90;;;;;;4866493;29;20057;-89
2023/07/07 08:36:06;;;;;;;5.57;2.35;;;20.50;99.90;;;;;;4847388;29;20529;-92
2023/07/07 08:51:39;;;;;;;11.55;2.35;;;21.10;99.60;;;;;;4954547;23;20056;-93
2023/07/07 08:54:56;;;;;;;5.22;2.50;;;21.20;99.20;;;;;;4907042;29;20451;-90
2023/07/07 08:57:28;;;;;;;7.15;2.33;;;21.20;99.10;;;;;;4817315;29;20086;-90
2023/07/07 09:00:48;;;;;;;6.10;2.30;;;21.80;99.40;;;;;;4892938;29;20036;-82
2023/07/07 09:03:38;;;;;;;5.35;2.88;;;21.30;98.80;;;;;;4898389;29;20513;-87
2023/07/07 09:06:15;;;;;;;6.90;2.80;;;21.40;98.90;;;;;;4881454;29;20036;-88
2023/07/07 09:09:17;;;;;;;3.33;2.88;;;21.50;98.50;;;;;;4903203;29;20075;-89
2023/07/07 09:12:04;;;;;;;3.90;2.85;;;21.50;98.60;;;;;;4904120;29;20036;-88
2023/07/07 09:14:32;;;;;;;3.63;2.83;;;21.50;98.40;;;;;;4908627;29;20016;-88
2023/07/07 09:17:11;;;;;;;5.07;2.55;;;21.50;98.70;;;;;;4898915;29;20044;-85
2023/07/07 09:19:40;;;;;;;4.93;2.25;;;21.60;98.00;;;;;;4908595;29;20529;-92
2023/07/07 09:22:24;;;;;;;3.40;2.40;;;21.50;97.70;;;;;;4888565;29;20044;-91
2023/07/07 09:25:02;;;;;;;3.90;2.15;;;21.60;97.60;;;;;;4901400;29;20100;-92
2023/07/07 09:27:39;;;;;;;9.45;2.42;;;21.80;97.10;;;;;;4900403;29;20028;-90
2023/07/07 09:30:20;;;;;;;4.60;2.58;;;21.80;96.80;;;;;;4912892;29;20028;-92
2023/07/07 09:32:46;;;;;;;6.55;2.20;;;21.80;96.80;;;;;;4903770;29;20035;-89
2023/07/07 09:35:13;;;;;;;7.82;2.10;;;21.90;96.70;;;;;;4899240;29;20088;-88
2023/07/07 09:38:14;;;;;;;2.78;2.58;;;22.00;95.60;;;;;;4917939;29;20469;-87
2023/07/07 09:40:52;;;;;;;3.15;2.33;;;22.00;96.00;;;;;;4894923;29;20071;-90
2023/07/07 09:43:32;;;;;;;4.07;2.22;;;22.00;96.40;;;;;;4913475;29;20083;-90
2023/07/07 09:46:11;;;;;;;3.40;2.40;;;22.20;95.80;;;;;;4910250;29;20032;-91
2023/07/07 09:49:20;;;;;;;2.45;2.22;;;22.10;96.10;;;;;;4900354;29;20041;-91
2023/07/07 09:52:06;;;;;;;4.65;2.90;;;22.20;94.50;;;;;;4902566;23;20151;-91
2023/07/07 09:54:33;;;;;;;2.65;2.33;;;22.20;93.90;;;;;;4898640;29;20047;-89
2023/07/07 09:57:35;;;;;;;4.82;2.58;;;22.30;93.90;;;;;;4898835;29;20038;-92
2023/07/07 10:00:20;;;;;;;4.97;2.70;;;22.30;93.90;;;;;;4885172;29;20406;-89
2023/07/07 10:03:44;;;;;;;3.00;2.20;;;22.40;93.40;;;;;;4899431;29;20043;-90
2023/07/07 10:06:35;;;;;;;3.47;2.22;;;22.70;94.30;;;;;;4807378;29;20031;-92
2023/07/07 10:09:19;;;;;;;6.85;2.90;;;22.50;93.70;;;;;;4805470;29;20034;-92
2023/07/07 10:12:01;;;;;;;4.82;2.63;;;23.30;93.60;;;;;;4806854;29;20053;-90
2023/07/07 10:14:42;;;;;;;2.72;2.13;;;22.50;93.40;;;;;;4808296;29;20050;-90
2023/07/07 10:20:43;;;;;;;2.90;2.55;;;22.60;92.70;;;;;;4906987;29;20110;-88
2023/07/07 10:23:13;;;;;;;4.28;2.67;;;22.50;92.40;;;;;;4891717;29;20039;-90
2023/07/07 10:25:55;;;;;;;3.53;2.88;;;22.70;92.60;;;;;;4901999;29;20032;-89
2023/07/07 10:28:36;;;;;;;3.90;2.35;;;22.90;92.80;;;;;;4899875;29;20068;-90
2023/07/07 10:36:42;;;;;;;2.80;2.38;;;22.90;92.70;;;;;;5170964;23;20522;-91
2023/07/07 10:39:23;;;;;;;2.80;2.22;;;22.90;92.20;;;;;;4880743;29;20480;-91
2023/07/07 10:42:30;;;;;;;2.92;2.20;;;23.00;91.80;;;;;;4879013;29;20041;-89
2023/07/07 10:44:59;;;;;;;4.68;2.38;;;22.90;91.90;;;;;;4866381;29;20112;-89
2023/07/07 10:47:45;;;;;;;7.72;5.78;;;23.00;91.40;;;;;;4879433;29;20033;-90
2023/07/07 10:57:55;;;;;;;2.97;2.40;;;23.00;91.40;;;;;;4898707;29;20103;-92
2023/07/07 11:01:04;;;;;;;9.75;2.03;;;23.00;91.60;;;;;;4865413;29;20385;-93
2023/07/07 11:04:15;;;;;;;5.63;2.60;;;23.10;91.50;;;;;;4918686;29;20020;-93
2023/07/07 11:07:26;;;;;;;2.92;2.45;;;23.20;91.50;;;;;;4897001;29;20028;-90
2023/07/07 11:10:10;;;;;;;;;;;23.20;91.60;;;;;;4918143;29;20492;-90
2023/07/07 11:19:09;;;;;;;3.17;2.72;;;23.30;90.90;;;;;;4898866;29;20108;-89
2023/07/07 11:21:52;;;;;;;3.80;2.20;;;23.40;90.90;;;;;;4893566;29;20393;-89
2023/07/07 11:24:34;;;;;;;2.40;2.20;;;23.50;91.00;;;;;;4899636;29;20029;-88
2023/07/07 11:27:44;;;;;;;4.28;2.40;;;23.40;90.70;;;;;;4900894;29;20029;-88
2023/07/07 11:30:33;;;;;;;;;;;23.40;90.40;;;;;;4877285;29;20473;-87
2023/07/07 11:33:18;;;;;;;2.88;2.55;;;23.50;90.40;;;;;;4902362;23;19929;-88
2023/07/07 11:35:52;;;;;;;3.92;2.47;;;23.50;90.70;;;;;;4899680;29;20032;-87
2023/07/07 11:38:58;;;;;;;4.07;2.60;;;23.50;90.40;;;;;;4905925;29;20035;-89
2023/07/07 11:48:42;;;;;;;11.63;2.83;;;23.60;90.60;;;;;;4778334;29;20129;-88
2023/07/07 11:51:49;;;;;;;12.50;3.03;;;23.70;91.00;;;;;;4888920;29;20045;-86
2023/07/07 11:54:30;;;;;;;3.38;2.53;;;23.80;90.50;;;;;;4886034;29;20510;-90
2023/07/07 11:57:20;;;;;;;3.03;2.47;;;23.80;90.00;;;;;;4896425;29;20029;-88
2023/07/07 12:00:27;;;;;;;3.65;3.08;;;23.80;90.70;;;;;;4891121;29;20029;-89
2023/07/07 12:03:38;;;;;;;3.28;2.55;;;23.80;90.70;;;;;;4912594;29;20033;-89
2023/07/07 12:06:30;;;;;;;4.22;2.60;;;23.90;90.40;;;;;;4899810;29;20029;-95
2023/07/07 12:09:45;;;;;;;2.85;2.28;;;23.50;89.30;;;;;;4899882;29;20017;-95
2023/07/07 12:30:11;;;;;;;;;;;24.10;90.90;;;;;;5265194;23;20532;-90
2023/07/07 12:32:36;;;;;;;5.82;2.60;;;24.10;90.00;;;;;;4898887;29;20368;-89
2023/07/07 12:35:27;;;;;;;5.88;2.78;;;24.00;90.40;;;;;;4898622;29;20039;-89
2023/07/07 12:37:57;;;;;;;5.82;3.20;;;24.20;89.80;;;;;;4887053;29;20040;-91
2023/07/07 12:40:23;;;;;;;;;;;24.20;90.40;;;;;;4900589;29;20485;-90
2023/07/07 12:43:07;;;;;;;2.78;2.10;;;24.30;90.30;;;;;;4897016;29;19946;-90
2023/07/07 12:45:39;;;;;;;3.22;2.58;;;24.30;90.60;;;;;;4887700;29;20119;-95
2023/07/07 12:48:13;;;;;;;6.13;2.45;;;24.10;90.90;;;;;;4888221;29;20428;-90
2023/07/07 12:50:42;;;;;;;4.30;2.83;;;24.10;91.00;;;;;;4896558;29;20036;-89
2023/07/07 12:53:42;;;;;;;4.43;2.28;;;24.20;90.40;;;;;;4901121;29;20129;-89
2023/07/07 12:56:08;;;;;;;3.25;2.47;;;24.40;89.00;;;;;;4918271;29;20115;-86
2023/07/07 12:58:37;;;;;;;3.03;2.70;;;24.40;89.10;;;;;;4907240;29;20089;-88
2023/07/07 13:01:23;;;;;;;3.38;2.63;;;24.40;90.00;;;;;;4902747;29;20055;-88
2023/07/07 13:04:13;;;;;;;5.93;3.10;;;24.40;90.40;;;;;;4916078;29;20110;-88
2023/07/07 13:07:13;;;;;;;10.77;2.92;;;24.50;88.30;;;;;;4913509;29;20036;-89
2023/07/07 13:09:45;;;;;;;5.70;2.58;;;24.50;89.50;;;;;;4849098;29;20032;-90
2023/07/07 13:12:41;;;;;;;5.00;2.67;;;24.40;89.90;;;;;;4909142;29;20094;-88
2023/07/07 13:15:27;;;;;;;3.03;2.58;;;24.60;88.50;;;;;;4908181;29;20024;-88
2023/07/07 13:17:57;;;;;;;5.22;2.63;;;24.80;87.30;;;;;;4910166;29;20036;-88
2023/07/07 13:20:25;;;;;;;5.55;2.50;;;24.80;86.90;;;;;;4910226;29;20032;-89
2023/07/07 13:22:58;;;;;;;3.00;2.67;;;24.80;86.30;;;;;;4898399;29;20033;-88
2023/07/07 13:25:33;;;;;;;4.32;2.33;;;24.90;86.90;;;;;;4917494;29;20027;-87
2023/07/07 13:28:16;;;;;;;2.53;2.33;;;24.90;86.40;;;;;;4880711;29;20068;-86
2023/07/07 13:30:46;;;;;;;3.33;2.33;;;24.40;85.60;;;;;;4909590;29;20516;-89
2023/07/07 13:33:32;;;;;;;4.85;2.30;;;24.90;86.40;;;;;;4904882;29;20051;-88
2023/07/07 13:36:00;;;;;;;3.65;2.28;;;25.00;87.00;;;;;;4905217;29;20032;-89
2023/07/07 13:38:49;;;;;;;2.63;2.10;;;25.10;87.10;;;;;;4909730;29;20024;-89
2023/07/07 13:41:18;;;;;;;2.85;2.20;;;25.20;87.30;;;;;;4916206;29;20055;-88
2023/07/07 13:44:05;;;;;;;6.00;2.88;;;25.20;87.60;;;;;;4917825;29;20030;-91
2023/07/07 13:46:31;;;;;;;3.35;2.63;;;24.80;87.40;;;;;;4896172;29;20375;-87
2023/07/07 13:49:18;;;;;;;3.75;2.95;;;25.20;89.20;;;;;;4929303;29;20020;-87
2023/07/07 13:51:53;;;;;;;5.28;2.78;;;25.20;89.80;;;;;;4915272;29;20076;-86
2023/07/07 13:54:21;;;;;;;4.28;2.92;;;25.30;90.10;;;;;;4905737;29;20024;-89
2023/07/07 13:56:50;;;;;;;2.42;2.22;;;25.30;90.10;;;;;;4904513;29;20056;-85
2023/07/07 13:59:21;;;;;;;6.82;2.97;;;25.20;89.00;;;;;;4916800;29;20100;-88
2023/07/07 14:01:57;;;;;;;6.03;2.40;;;25.40;89.50;;;;;;4916052;29;20055;-87
2023/07/07 14:04:53;;;;;;;2.75;2.53;;;25.20;89.10;;;;;;4913470;29;20024;-86
2023/07/07 14:07:20;;;;;;;4.05;3.05;;;25.50;90.10;;;;;;4912926;29;20036;-88
2023/07/07 14:09:48;;;;;;;3.85;2.47;;;26.10;90.30;;;;;;4897580;29;20032;-85
2023/07/07 14:12:35;;;;;;;8.20;2.92;;;25.70;89.60;;;;;;4912731;29;20040;-88
2023/07/07 14:15:00;;;;;;;7.40;2.55;;;25.80;89.20;;;;;;4916875;29;20445;-86
2023/07/07 14:17:45;;;;;;;3.17;2.30;;;25.90;89.50;;;;;;4901352;29;20024;-84
2023/07/07 14:20:21;;;;;;;4.70;3.00;;;25.80;89.20;;;;;;4901199;29;20043;-86
2023/07/07 14:22:47;;;;;;;3.95;2.17;;;25.90;89.60;;;;;;4914849;29;20078;-83
2023/07/07 14:25:20;;;;;;;3.25;2.70;;;25.80;88.70;;;;;;4896247;29;20031;-83
2023/07/07 14:27:46;;;;;;;3.35;2.78;;;25.90;89.00;;;;;;4895523;29;20489;-85
2023/07/07 14:30:24;;;;;;;4.53;3.17;;;26.00;90.20;;;;;;4889737;29;20112;-86
2023/07/07 14:32:54;;;;;;;4.60;2.22;;;26.10;89.50;;;;;;4887722;29;20055;-87
2023/07/07 14:35:39;;;;;;;2.67;2.42;;;26.10;90.00;;;;;;4905178;23;20052;-86
2023/07/07 14:38:32;;;;;;;5.85;2.63;;;26.10;89.50;;;;;;4888422;29;20389;-87
2023/07/07 14:40:59;;;;;;;3.75;2.90;;;26.20;89.70;;;;;;4901137;29;20034;-85
2023/07/07 14:43:48;;;;;;;2.47;2.25;;;26.30;88.30;;;;;;4886712;29;20403;-86
2023/07/07 14:46:38;;;;;;;4.78;2.72;;;26.30;88.20;;;;;;4909601;23;20052;-86
2023/07/07 14:49:13;;;;;;;5.32;2.80;;;26.30;89.90;;;;;;4903198;29;20091;-89
2023/07/07 14:51:51;;;;;;;4.18;2.97;;;26.30;88.70;;;;;;4911564;24;20076;-95
2023/07/07 14:54:21;;;;;;;2.65;2.45;;;26.30;88.40;;;;;;4906413;29;20033;-90
2023/07/07 14:56:50;;;;;;;5.20;2.58;;;26.30;89.20;;;;;;4896088;29;20035;-88
2023/07/07 14:59:26;;;;;;;5.85;2.78;;;26.40;89.20;;;;;;4898245;29;20111;-92